Time;durP1;ratioP1;P1;durP2;ratioP2;P2;SDS_P1;SDS_P2;PMS_P1;PMS_P2;Temp;Humidity;BMP_temperature;BMP_pressure;BME280_temperature;BME280_humidity;BME280_pressure;Samples;Min_cycle;Max_cycle;Signal;HPM_P1;HPM_P2
2022/03/12 00:02:03;;;;;;;46.00;21.15;;;;;;;;;;5037201;28;20094;-48
2022/03/12 00:04:30;;;;;;;43.33;18.88;;;;;;;;;;5070021;28;20024;-45
2022/03/12 00:06:58;;;;;;;47.00;18.58;;;;;;;;;;5070239;28;20516;-44
2022/03/12 00:09:24;;;;;;;51.30;23.02;;;;;;;;;;5070562;28;20036;-45
2022/03/12 00:11:55;;;;;;;48.22;22.05;;;;;;;;;;5070598;28;20050;-45
2022/03/12 00:14:23;;;;;;;39.83;16.73;;;;;;;;;;5070457;28;20039;-46
2022/03/12 00:16:52;;;;;;;53.05;23.15;;;;;;;;;;5069579;28;20051;-46
2022/03/12 00:19:20;;;;;;;44.72;19.95;;;;;;;;;;5070414;28;20024;-45
2022/03/12 00:21:47;;;;;;;45.67;20.02;;;;;;;;;;5070379;28;20031;-45
2022/03/12 00:24:15;;;;;;;43.35;18.25;;;;;;;;;;5070236;28;20024;-45
2022/03/12 00:26:43;;;;;;;37.60;17.33;;;;;;;;;;5070171;28;20066;-45
2022/03/12 00:29:13;;;;;;;37.35;16.10;;;;;;;;;;5067979;28;20059;-45
2022/03/12 00:31:40;;;;;;;40.03;19.20;;;;;;;;;;5070432;28;20036;-45
2022/03/12 00:34:06;;;;;;;42.25;20.08;;;;;;;;;;5054933;28;20029;-42
2022/03/12 00:36:32;;;;;;;43.08;18.88;;;;;;;;;;5053244;28;20036;-50
2022/03/12 00:38:58;;;;;;;34.95;17.35;;;;;;;;;;5053121;28;20017;-52
2022/03/12 00:41:25;;;;;;;43.40;17.50;;;;;;;;;;5052751;28;20493;-47
2022/03/12 00:43:52;;;;;;;52.38;21.67;;;;;;;;;;5035232;28;20041;-53
2022/03/12 00:46:19;;;;;;;37.90;16.70;;;;;;;;;;5035163;28;20508;-58
2022/03/12 00:48:45;;;;;;;47.13;22.40;;;;;;;;;;5053016;28;20028;-54
2022/03/12 00:51:12;;;;;;;45.88;19.33;;;;;;;;;;5052936;28;20380;-51
2022/03/12 00:53:39;;;;;;;29.55;14.10;;;;;;;;;;5076864;28;20439;-55
2022/03/12 00:56:06;;;;;;;36.42;16.20;;;;;;;;;;5056631;28;20044;-53
2022/03/12 00:58:32;;;;;;;34.88;15.57;;;;;;;;;;5072866;28;20024;-54
2022/03/12 01:00:58;;;;;;;31.35;14.05;;;;;;;;;;5072562;28;20040;-54
2022/03/12 01:03:24;;;;;;;31.63;14.93;;;;;;;;;;5073110;28;20033;-54
2022/03/12 01:05:54;;;;;;;35.85;15.95;;;;;;;;;;5072836;28;20024;-53
2022/03/12 01:08:21;;;;;;;30.10;13.25;;;;;;;;;;5073001;28;20145;-53
2022/03/12 01:10:47;;;;;;;35.60;17.02;;;;;;;;;;5072863;28;20524;-52
2022/03/12 01:13:14;;;;;;;29.42;14.02;;;;;;;;;;5072835;28;20028;-53
2022/03/12 01:15:40;;;;;;;31.75;13.82;;;;;;;;;;5072952;28;20028;-51
2022/03/12 01:18:10;;;;;;;30.55;13.38;;;;;;;;;;5072840;28;20029;-54
2022/03/12 01:20:36;;;;;;;28.92;14.25;;;;;;;;;;5072665;28;20158;-54
2022/03/12 01:23:04;;;;;;;27.67;14.35;;;;;;;;;;5072960;28;20035;-53
2022/03/12 01:25:30;;;;;;;27.38;12.27;;;;;;;;;;5072635;28;20017;-55
2022/03/12 01:27:56;;;;;;;25.35;11.70;;;;;;;;;;5072832;28;20052;-54
2022/03/12 01:30:26;;;;;;;25.60;11.35;;;;;;;;;;5072725;28;20536;-55
2022/03/12 01:32:52;;;;;;;27.08;11.95;;;;;;;;;;5072424;28;20481;-54
2022/03/12 01:35:18;;;;;;;22.90;10.90;;;;;;;;;;5072661;28;20048;-52
2022/03/12 01:37:44;;;;;;;24.17;10.10;;;;;;;;;;5072512;28;20078;-53
2022/03/12 01:40:11;;;;;;;23.30;11.15;;;;;;;;;;5072752;28;20033;-52
2022/03/12 01:42:37;;;;;;;24.80;11.57;;;;;;;;;;5072773;28;20016;-51
2022/03/12 01:45:09;;;;;;;28.63;12.30;;;;;;;;;;5072606;28;20031;-53
2022/03/12 01:47:35;;;;;;;22.27;10.45;;;;;;;;;;5072382;28;20535;-54
2022/03/12 01:50:02;;;;;;;29.65;12.88;;;;;;;;;;5072635;28;20055;-54
2022/03/12 01:52:29;;;;;;;22.15;10.50;;;;;;;;;;5072416;28;20028;-53
2022/03/12 01:54:55;;;;;;;29.63;11.32;;;;;;;;;;5075883;28;20542;-53
2022/03/12 01:57:22;;;;;;;22.38;10.40;;;;;;;;;;5076093;28;20473;-52
2022/03/12 01:59:48;;;;;;;22.73;10.10;;;;;;;;;;5075816;28;20033;-54
2022/03/12 02:02:15;;;;;;;19.67;9.20;;;;;;;;;;5075639;28;20087;-51
2022/03/12 02:04:49;;;;;;;21.58;9.02;;;;;;;;;;5075755;28;20144;-54
2022/03/12 02:07:16;;;;;;;29.52;11.73;;;;;;;;;;5075701;28;20032;-53
2022/03/12 02:09:42;;;;;;;22.17;11.30;;;;;;;;;;5075807;28;20025;-53
2022/03/12 02:12:08;;;;;;;22.13;11.23;;;;;;;;;;5075817;28;20161;-51
2022/03/12 02:14:36;;;;;;;24.38;10.48;;;;;;;;;;5075758;28;20064;-53
2022/03/12 02:17:04;;;;;;;29.85;12.43;;;;;;;;;;5075484;28;20021;-54
2022/03/12 02:19:31;;;;;;;26.00;10.73;;;;;;;;;;5075615;28;20025;-54
2022/03/12 02:22:02;;;;;;;24.08;8.93;;;;;;;;;;5075575;28;20032;-54
2022/03/12 02:24:29;;;;;;;21.48;10.07;;;;;;;;;;5075484;28;20024;-54
2022/03/12 02:26:56;;;;;;;21.52;10.10;;;;;;;;;;5075328;28;20040;-54
2022/03/12 02:29:23;;;;;;;23.55;9.18;;;;;;;;;;5075478;28;20082;-53
2022/03/12 02:31:51;;;;;;;24.55;9.65;;;;;;;;;;5075182;28;20055;-53
2022/03/12 02:34:22;;;;;;;21.85;10.77;;;;;;;;;;5075496;28;20025;-53
2022/03/12 02:36:49;;;;;;;23.35;10.95;;;;;;;;;;5075379;28;20038;-53
2022/03/12 02:39:16;;;;;;;23.38;9.88;;;;;;;;;;5075177;28;20055;-54
2022/03/12 02:41:42;;;;;;;22.58;11.05;;;;;;;;;;5075205;28;20112;-54
2022/03/12 02:44:10;;;;;;;23.13;10.82;;;;;;;;;;5074875;28;20020;-53
2022/03/12 02:46:41;;;;;;;21.58;9.85;;;;;;;;;;5075089;28;20526;-52
2022/03/12 02:49:07;;;;;;;27.13;11.10;;;;;;;;;;5057141;28;20090;-53
2022/03/12 02:51:34;;;;;;;27.45;11.20;;;;;;;;;;5075070;28;20028;-54
2022/03/12 02:54:00;;;;;;;26.90;11.23;;;;;;;;;;5057275;28;20028;-48
2022/03/12 02:56:27;;;;;;;30.63;13.30;;;;;;;;;;5074879;28;20051;-51
2022/03/12 02:58:53;;;;;;;28.35;11.90;;;;;;;;;;5074901;28;20024;-56
2022/03/12 03:01:20;;;;;;;28.85;10.73;;;;;;;;;;5074616;28;20420;-55
2022/03/12 03:03:46;;;;;;;25.67;11.52;;;;;;;;;;5074616;28;20046;-55
2022/03/12 03:06:14;;;;;;;20.70;9.85;;;;;;;;;;5074145;28;20099;-53
2022/03/12 03:08:41;;;;;;;24.67;10.13;;;;;;;;;;5074672;28;20040;-54
2022/03/12 03:11:12;;;;;;;21.35;10.18;;;;;;;;;;5074565;28;20032;-58
2022/03/12 03:13:44;;;;;;;22.77;9.52;;;;;;;;;;5074577;28;20024;-54
2022/03/12 03:16:24;;;;;;;26.58;11.32;;;;;;;;;;5074784;28;20107;-54
2022/03/12 03:18:52;;;;;;;27.42;12.05;;;;;;;;;;5056194;28;20036;-54
2022/03/12 03:21:19;;;;;;;30.90;11.73;;;;;;;;;;5074527;28;20036;-53
2022/03/12 03:23:46;;;;;;;25.08;11.15;;;;;;;;;;5074415;28;20025;-53
2022/03/12 03:26:12;;;;;;;24.63;11.10;;;;;;;;;;5074225;28;20039;-55
2022/03/12 03:28:38;;;;;;;24.92;10.18;;;;;;;;;;5074703;28;20016;-53
2022/03/12 03:31:06;;;;;;;19.85;10.32;;;;;;;;;;5074198;28;20112;-53
2022/03/12 03:33:32;;;;;;;23.13;10.23;;;;;;;;;;5074313;28;20028;-55
2022/03/12 03:35:58;;;;;;;23.65;10.65;;;;;;;;;;5074155;28;20101;-54
2022/03/12 03:38:24;;;;;;;19.33;8.85;;;;;;;;;;5073999;28;20024;-53
2022/03/12 03:40:51;;;;;;;20.60;9.43;;;;;;;;;;5073971;28;20044;-53
2022/03/12 03:43:21;;;;;;;20.83;10.63;;;;;;;;;;5073980;28;20487;-60
2022/03/12 03:45:49;;;;;;;18.40;8.77;;;;;;;;;;5073984;28;20025;-54
2022/03/12 03:48:16;;;;;;;22.73;9.27;;;;;;;;;;5056136;28;20414;-54
2022/03/12 03:50:43;;;;;;;20.38;9.50;;;;;;;;;;5073926;28;20025;-56
2022/03/12 03:53:11;;;;;;;20.30;9.13;;;;;;;;;;5074035;28;20032;-56
2022/03/12 03:55:37;;;;;;;19.90;9.75;;;;;;;;;;5073737;28;20403;-55
2022/03/12 03:58:03;;;;;;;21.65;9.90;;;;;;;;;;5074010;28;20021;-55
2022/03/12 04:00:31;;;;;;;21.10;9.63;;;;;;;;;;5073281;28;20074;-54
2022/03/12 04:03:04;;;;;;;18.58;9.05;;;;;;;;;;5073638;28;20043;-53
2022/03/12 04:05:35;;;;;;;25.02;10.70;;;;;;;;;;5073685;28;20024;-54
2022/03/12 04:08:01;;;;;;;20.95;10.10;;;;;;;;;;5073538;28;20043;-54
2022/03/12 04:10:28;;;;;;;25.60;11.15;;;;;;;;;;5055388;28;20376;-53
2022/03/12 04:12:55;;;;;;;20.65;10.82;;;;;;;;;;5073779;28;20438;-51
2022/03/12 04:15:21;;;;;;;20.10;9.48;;;;;;;;;;5073462;28;20503;-53
2022/03/12 04:17:51;;;;;;;28.40;14.43;;;;;;;;;;5073296;28;20054;-54
2022/03/12 04:20:18;;;;;;;31.23;14.55;;;;;;;;;;5073446;28;20483;-52
2022/03/12 04:22:45;;;;;;;19.13;10.70;;;;;;;;;;5073374;28;20036;-54
2022/03/12 04:25:12;;;;;;;20.13;10.88;;;;;;;;;;5073232;28;20165;-54
2022/03/12 04:27:38;;;;;;;20.40;10.50;;;;;;;;;;5073153;28;20480;-54
2022/03/12 04:30:06;;;;;;;19.25;9.10;;;;;;;;;;5073436;28;20103;-55
2022/03/12 04:32:32;;;;;;;19.00;9.77;;;;;;;;;;5073239;28;20028;-53
2022/03/12 04:34:58;;;;;;;24.30;10.40;;;;;;;;;;5073175;28;20025;-54
2022/03/12 04:37:24;;;;;;;24.83;10.90;;;;;;;;;;5073291;28;20036;-54
2022/03/12 04:39:51;;;;;;;24.60;11.73;;;;;;;;;;5073113;28;20104;-53
2022/03/12 04:42:23;;;;;;;19.85;10.35;;;;;;;;;;5073311;28;20094;-53
2022/03/12 04:44:52;;;;;;;21.15;10.45;;;;;;;;;;5073293;28;20029;-55
2022/03/12 04:47:22;;;;;;;23.38;10.23;;;;;;;;;;5072998;28;20496;-52
2022/03/12 04:49:48;;;;;;;17.52;9.05;;;;;;;;;;5073455;28;20016;-54
2022/03/12 04:52:14;;;;;;;22.23;10.00;;;;;;;;;;5073095;28;20103;-52
2022/03/12 04:54:41;;;;;;;26.45;10.20;;;;;;;;;;5072962;28;20048;-53
2022/03/12 04:57:07;;;;;;;17.00;8.40;;;;;;;;;;5073143;28;20472;-54
2022/03/12 04:59:33;;;;;;;18.80;9.73;;;;;;;;;;5073148;28;20020;-51
2022/03/12 05:01:59;;;;;;;20.33;9.65;;;;;;;;;;5072652;28;20056;-53
2022/03/12 05:04:26;;;;;;;21.00;9.50;;;;;;;;;;5072886;28;20034;-50
2022/03/12 05:06:52;;;;;;;19.13;8.68;;;;;;;;;;5072807;28;20059;-52
2022/03/12 05:09:19;;;;;;;19.42;9.18;;;;;;;;;;5072941;28;20066;-53
2022/03/12 05:11:45;;;;;;;21.65;9.23;;;;;;;;;;5072860;28;20028;-53
2022/03/12 05:14:16;;;;;;;24.48;9.98;;;;;;;;;;5073178;28;20028;-52
2022/03/12 05:16:44;;;;;;;23.63;11.60;;;;;;;;;;5072789;28;20027;-51
2022/03/12 05:19:13;;;;;;;28.85;11.93;;;;;;;;;;5072687;28;20033;-50
2022/03/12 05:21:39;;;;;;;33.63;14.52;;;;;;;;;;5072800;28;20387;-52
2022/03/12 05:24:05;;;;;;;43.47;18.40;;;;;;;;;;5072847;28;20024;-52
2022/03/12 05:26:31;;;;;;;49.60;20.60;;;;;;;;;;5072612;28;20025;-55
2022/03/12 05:28:57;;;;;;;66.63;23.85;;;;;;;;;;5075099;28;20021;-55
2022/03/12 05:31:24;;;;;;;52.92;20.52;;;;;;;;;;5076380;28;20048;-53
2022/03/12 05:33:50;;;;;;;72.60;23.33;;;;;;;;;;5076381;28;20063;-54
2022/03/12 05:36:16;;;;;;;95.88;28.25;;;;;;;;;;5076426;28;20107;-53
2022/03/12 05:38:42;;;;;;;91.28;24.27;;;;;;;;;;5076308;28;20032;-54
2022/03/12 05:41:13;;;;;;;64.35;21.42;;;;;;;;;;5076110;28;20025;-54
2022/03/12 05:43:43;;;;;;;69.35;22.05;;;;;;;;;;5076221;28;20060;-54
2022/03/12 05:46:11;;;;;;;91.13;27.88;;;;;;;;;;5076191;28;20052;-54
2022/03/12 05:48:38;;;;;;;64.18;24.30;;;;;;;;;;5076084;28;20460;-53
2022/03/12 05:51:05;;;;;;;44.53;16.98;;;;;;;;;;5076156;28;20024;-54
2022/03/12 05:53:34;;;;;;;39.35;16.70;;;;;;;;;;5075987;28;20040;-53
2022/03/12 05:56:01;;;;;;;38.00;17.75;;;;;;;;;;5076169;28;20029;-43
2022/03/12 05:58:27;;;;;;;38.08;18.10;;;;;;;;;;5076115;28;20016;-52
2022/03/12 06:00:54;;;;;;;30.70;16.63;;;;;;;;;;5075682;28;20042;-54
2022/03/12 06:03:21;;;;;;;39.25;17.38;;;;;;;;;;5075996;28;20079;-54
2022/03/12 06:05:54;;;;;;;43.08;19.23;;;;;;;;;;5075742;28;20403;-53
2022/03/12 06:08:24;;;;;;;58.22;26.38;;;;;;;;;;5075744;28;20028;-56
2022/03/12 06:10:52;;;;;;;75.68;34.75;;;;;;;;;;5075846;28;20025;-54
2022/03/12 06:13:29;;;;;;;90.47;37.75;;;;;;;;;;5075721;28;20104;-54
2022/03/12 06:15:58;;;;;;;140.85;50.80;;;;;;;;;;5075923;28;20027;-55
2022/03/12 06:18:35;;;;;;;83.85;36.15;;;;;;;;;;5075782;28;20432;-52
2022/03/12 06:21:01;;;;;;;46.78;21.27;;;;;;;;;;5075810;28;20079;-51
2022/03/12 06:23:28;;;;;;;38.60;20.83;;;;;;;;;;5075514;28;20107;-58
2022/03/12 06:25:55;;;;;;;66.80;29.67;;;;;;;;;;5075368;28;20051;-57
2022/03/12 06:28:21;;;;;;;74.57;35.70;;;;;;;;;;5075563;28;20024;-51
2022/03/12 06:30:48;;;;;;;76.00;39.22;;;;;;;;;;5075458;28;20025;-56
2022/03/12 06:33:18;;;;;;;60.65;32.95;;;;;;;;;;5075600;28;20043;-52
2022/03/12 06:35:45;;;;;;;51.55;27.25;;;;;;;;;;5075339;28;20099;-56
2022/03/12 06:38:12;;;;;;;53.80;27.35;;;;;;;;;;5075500;28;20067;-55
2022/03/12 06:40:38;;;;;;;44.13;22.98;;;;;;;;;;5074114;28;20028;-56
2022/03/12 06:43:09;;;;;;;66.47;29.75;;;;;;;;;;5075490;28;20040;-53
2022/03/12 06:45:35;;;;;;;78.07;41.30;;;;;;;;;;5075292;28;20063;-50
2022/03/12 06:48:01;;;;;;;59.22;28.98;;;;;;;;;;5075052;28;20039;-53
2022/03/12 06:50:28;;;;;;;41.03;19.00;;;;;;;;;;5075223;28;20020;-52
2022/03/12 06:52:56;;;;;;;51.60;22.52;;;;;;;;;;5075290;28;20085;-54
2022/03/12 06:55:23;;;;;;;41.50;19.40;;;;;;;;;;5074979;28;20017;-54
2022/03/12 06:57:53;;;;;;;87.28;41.20;;;;;;;;;;5074998;28;20067;-51
2022/03/12 07:00:22;;;;;;;41.15;20.38;;;;;;;;;;5074755;28;20332;-48
2022/03/12 07:02:48;;;;;;;45.90;22.08;;;;;;;;;;5074568;28;20049;-50
2022/03/12 07:05:14;;;;;;;52.03;24.27;;;;;;;;;;5074849;28;20021;-50
2022/03/12 07:07:41;;;;;;;49.53;24.55;;;;;;;;;;5074716;28;20129;-49
2022/03/12 07:10:10;;;;;;;44.85;20.65;;;;;;;;;;5074672;28;20122;-50
2022/03/12 07:12:37;;;;;;;50.50;21.08;;;;;;;;;;5074705;28;20025;-53
2022/03/12 07:15:05;;;;;;;52.78;33.58;;;;;;;;;;5074829;28;20024;-51
2022/03/12 07:17:31;;;;;;;38.72;20.55;;;;;;;;;;5074452;28;20031;-54
2022/03/12 07:19:57;;;;;;;37.65;20.55;;;;;;;;;;5074707;28;20371;-51
2022/03/12 07:22:23;;;;;;;46.95;23.92;;;;;;;;;;5074480;28;20025;-52
2022/03/12 07:24:49;;;;;;;47.53;22.92;;;;;;;;;;5074261;28;20066;-51
2022/03/12 07:27:15;;;;;;;46.67;23.52;;;;;;;;;;5074061;28;20044;-53
2022/03/12 07:29:41;;;;;;;42.50;25.73;;;;;;;;;;5056578;28;20024;-53
2022/03/12 07:32:08;;;;;;;48.38;29.17;;;;;;;;;;5074122;28;20085;-54
2022/03/12 07:34:36;;;;;;;39.30;23.63;;;;;;;;;;5074075;28;20045;-54
2022/03/12 07:37:02;;;;;;;34.25;24.30;;;;;;;;;;5074128;28;20017;-54
2022/03/12 07:39:29;;;;;;;33.53;22.08;;;;;;;;;;5074022;28;20032;-55
2022/03/12 07:41:55;;;;;;;37.58;22.88;;;;;;;;;;5073897;28;20392;-54
2022/03/12 07:44:23;;;;;;;33.15;22.02;;;;;;;;;;5073884;28;20028;-53
2022/03/12 07:46:51;;;;;;;43.60;22.27;;;;;;;;;;5073659;28;20391;-52
2022/03/12 07:49:17;;;;;;;29.45;18.92;;;;;;;;;;5073657;28;20027;-54
2022/03/12 07:51:43;;;;;;;36.28;19.98;;;;;;;;;;5073304;28;20476;-46
2022/03/12 07:54:12;;;;;;;26.52;15.77;;;;;;;;;;5073717;28;20029;-53
2022/03/12 07:56:39;;;;;;;19.15;11.93;;;;;;;;;;5073476;28;20020;-52
2022/03/12 07:59:07;;;;;;;13.77;9.75;;;;;;;;;;5072898;28;20487;-55
2022/03/12 08:01:33;;;;;;;22.38;13.88;;;;;;;;;;5071702;28;20169;-55
2022/03/12 08:04:01;;;;;;;16.50;12.15;;;;;;;;;;5072140;28;20460;-50
2022/03/12 08:06:27;;;;;;;26.88;15.52;;;;;;;;;;5071948;28;20033;-54
2022/03/12 08:08:53;;;;;;;19.77;10.32;;;;;;;;;;5069280;28;20020;-51
2022/03/12 08:11:28;;;;;;;14.00;8.32;;;;;;;;;;5072303;28;20465;-59
2022/03/12 08:14:00;;;;;;;17.10;10.05;;;;;;;;;;5072791;28;20030;-53
2022/03/12 08:16:28;;;;;;;13.90;8.77;;;;;;;;;;5071854;28;20020;-52
2022/03/12 08:18:54;;;;;;;12.63;7.80;;;;;;;;;;5069596;28;20717;-53
2022/03/12 08:21:20;;;;;;;12.32;8.27;;;;;;;;;;5072117;28;20353;-52
2022/03/12 08:23:47;;;;;;;14.55;9.38;;;;;;;;;;5071846;28;20028;-48
2022/03/12 08:26:13;;;;;;;23.27;12.60;;;;;;;;;;5069018;28;20027;-46
2022/03/12 08:28:40;;;;;;;15.88;10.40;;;;;;;;;;5071577;28;20067;-50
2022/03/12 08:31:06;;;;;;;26.90;13.68;;;;;;;;;;5072320;28;20082;-51
2022/03/12 08:33:33;;;;;;;16.73;10.15;;;;;;;;;;5072701;28;20165;-50
2022/03/12 08:36:01;;;;;;;19.80;11.35;;;;;;;;;;5072764;28;20020;-51
2022/03/12 08:38:27;;;;;;;22.45;12.75;;;;;;;;;;5072691;28;20422;-53
2022/03/12 08:40:53;;;;;;;15.70;9.00;;;;;;;;;;5072461;28;20357;-52
2022/03/12 08:43:21;;;;;;;23.88;12.88;;;;;;;;;;5072590;28;20048;-46
2022/03/12 08:45:48;;;;;;;22.25;10.35;;;;;;;;;;5072657;28;20021;-53
2022/03/12 08:48:15;;;;;;;21.63;10.32;;;;;;;;;;5071854;28;20028;-46
2022/03/12 08:50:42;;;;;;;31.65;18.80;;;;;;;;;;5071686;28;20019;-48
2022/03/12 08:53:08;;;;;;;62.90;36.85;;;;;;;;;;5071571;28;20028;-50
2022/03/12 08:55:34;;;;;;;55.25;29.88;;;;;;;;;;5071250;28;20016;-48
2022/03/12 08:58:00;;;;;;;32.33;18.17;;;;;;;;;;5071453;28;20035;-50
2022/03/12 09:00:26;;;;;;;68.63;38.10;;;;;;;;;;5071881;28;20021;-48
2022/03/12 09:02:52;;;;;;;22.95;12.43;;;;;;;;;;5072223;28;20037;-47
2022/03/12 09:05:19;;;;;;;20.13;10.73;;;;;;;;;;5075287;28;20384;-51
2022/03/12 09:07:45;;;;;;;17.30;10.30;;;;;;;;;;5076685;28;20479;-49
2022/03/12 09:10:12;;;;;;;16.02;8.55;;;;;;;;;;5076728;28;20392;-52
2022/03/12 09:12:45;;;;;;;20.10;11.25;;;;;;;;;;5076767;28;20029;-49
2022/03/12 09:15:11;;;;;;;30.00;16.95;;;;;;;;;;5076665;28;20062;-52
2022/03/12 09:17:37;;;;;;;19.27;11.75;;;;;;;;;;5076895;28;20107;-50
2022/03/12 09:20:04;;;;;;;31.10;19.13;;;;;;;;;;5076639;28;20021;-50
2022/03/12 09:22:30;;;;;;;36.55;21.08;;;;;;;;;;5076533;28;20099;-52
2022/03/12 09:24:57;;;;;;;15.05;7.90;;;;;;;;;;5076483;28;20036;-50
2022/03/12 09:27:23;;;;;;;13.77;8.80;;;;;;;;;;5076239;28;20587;-49
2022/03/12 09:29:50;;;;;;;19.23;11.10;;;;;;;;;;5076255;28;20029;-50
2022/03/12 09:32:19;;;;;;;16.40;10.05;;;;;;;;;;5076309;28;20032;-49
2022/03/12 09:34:45;;;;;;;17.88;10.73;;;;;;;;;;5076226;28;20104;-51
2022/03/12 09:37:11;;;;;;;14.52;7.55;;;;;;;;;;5076298;28;20119;-50
2022/03/12 09:39:40;;;;;;;27.35;14.18;;;;;;;;;;5076311;28;20024;-50
2022/03/12 09:42:08;;;;;;;29.58;10.95;;;;;;;;;;5075706;28;20529;-54
2022/03/12 09:44:34;;;;;;;14.90;7.63;;;;;;;;;;5075597;28;20028;-50
2022/03/12 09:47:00;;;;;;;19.23;11.13;;;;;;;;;;5075621;28;20063;-49
2022/03/12 09:49:26;;;;;;;16.98;10.38;;;;;;;;;;5075537;28;20028;-47
2022/03/12 09:51:52;;;;;;;10.70;6.50;;;;;;;;;;5075987;28;20032;-55
2022/03/12 09:54:22;;;;;;;17.65;9.80;;;;;;;;;;5075673;28;20017;-52
2022/03/12 09:56:48;;;;;;;12.70;6.93;;;;;;;;;;5075534;28;20012;-51
2022/03/12 09:59:19;;;;;;;65.88;40.22;;;;;;;;;;5075155;28;20046;-50
2022/03/12 10:01:45;;;;;;;56.45;30.33;;;;;;;;;;5075623;28;20047;-55
2022/03/12 10:04:11;;;;;;;11.20;7.35;;;;;;;;;;5058164;28;20059;-54
2022/03/12 10:06:40;;;;;;;13.30;5.50;;;;;;;;;;5075816;28;20047;-49
2022/03/12 10:09:06;;;;;;;29.15;14.93;;;;;;;;;;5075699;28;20035;-52
2022/03/12 10:11:34;;;;;;;21.77;10.70;;;;;;;;;;5075643;28;20048;-54
2022/03/12 10:14:00;;;;;;;19.88;15.77;;;;;;;;;;5075270;28;20036;-54
2022/03/12 10:16:29;;;;;;;11.65;6.45;;;;;;;;;;5075617;28;20021;-56
2022/03/12 10:18:55;;;;;;;12.63;8.15;;;;;;;;;;5075622;28;20039;-55
2022/03/12 10:21:22;;;;;;;12.73;6.82;;;;;;;;;;5075769;28;20021;-53
2022/03/12 10:23:49;;;;;;;13.35;5.65;;;;;;;;;;5075573;28;20392;-44
2022/03/12 10:26:15;;;;;;;26.20;10.45;;;;;;;;;;5075524;28;20119;-57
2022/03/12 10:28:41;;;;;;;10.63;5.65;;;;;;;;;;5074691;28;20064;-53
2022/03/12 10:31:08;;;;;;;57.05;20.45;;;;;;;;;;5074844;28;20024;-53
2022/03/12 10:33:36;;;;;;;13.68;7.25;;;;;;;;;;5074973;28;20064;-52
2022/03/12 10:36:15;;;;;;;29.67;13.95;;;;;;;;;;5074826;28;20034;-53
2022/03/12 10:38:43;;;;;;;32.88;18.02;;;;;;;;;;5073522;28;20012;-44
2022/03/12 10:41:10;;;;;;;26.42;12.18;;;;;;;;;;5075036;28;20375;-41
2022/03/12 10:43:54;;;;;;;20.30;8.38;;;;;;;;;;5074669;28;20017;-52
2022/03/12 10:46:21;;;;;;;29.67;8.50;;;;;;;;;;5073027;28;20021;-45
2022/03/12 10:48:54;;;;;;;12.07;6.18;;;;;;;;;;5074563;28;20029;-52
2022/03/12 10:51:21;;;;;;;16.75;7.32;;;;;;;;;;5074499;28;20032;-49
2022/03/12 10:53:48;;;;;;;9.75;5.13;;;;;;;;;;5073467;28;20082;-46
2022/03/12 10:56:14;;;;;;;25.77;12.77;;;;;;;;;;5073809;28;20393;-56
2022/03/12 10:58:40;;;;;;;25.08;12.55;;;;;;;;;;5074814;28;20082;-54
2022/03/12 11:01:07;;;;;;;10.48;5.93;;;;;;;;;;5074662;28;20053;-56
2022/03/12 11:03:34;;;;;;;11.57;5.10;;;;;;;;;;5074722;28;20024;-54
2022/03/12 11:06:03;;;;;;;13.27;6.53;;;;;;;;;;5074690;28;20085;-56
2022/03/12 11:08:30;;;;;;;36.17;17.20;;;;;;;;;;5074398;28;20033;-54
2022/03/12 11:11:00;;;;;;;28.85;16.88;;;;;;;;;;5074589;28;20503;-53
2022/03/12 11:13:34;;;;;;;14.27;7.97;;;;;;;;;;5074670;28;20039;-59
2022/03/12 11:16:06;;;;;;;66.97;36.22;;;;;;;;;;5074583;28;20104;-56
2022/03/12 11:18:36;;;;;;;27.38;15.57;;;;;;;;;;5074422;28;20043;-53
2022/03/12 11:21:04;;;;;;;13.77;7.47;;;;;;;;;;5074318;28;20051;-53
2022/03/12 11:23:31;;;;;;;21.83;12.73;;;;;;;;;;5074605;28;20082;-52
2022/03/12 11:26:00;;;;;;;6.47;4.15;;;;;;;;;;5073517;28;20029;-50
2022/03/12 11:28:30;;;;;;;4.53;3.08;;;;;;;;;;5074245;28;20041;-48
2022/03/12 11:30:57;;;;;;;7.78;3.58;;;;;;;;;;5073943;28;20035;-50
2022/03/12 11:33:26;;;;;;;4.20;2.95;;;;;;;;;;5074138;28;20107;-55
2022/03/12 11:36:00;;;;;;;9.55;5.95;;;;;;;;;;5074074;28;20029;-45
2022/03/12 11:38:27;;;;;;;51.55;27.60;;;;;;;;;;5074176;28;20032;-44
2022/03/12 11:41:05;;;;;;;26.05;15.02;;;;;;;;;;5074156;28;20377;-45
2022/03/12 11:43:32;;;;;;;17.15;10.82;;;;;;;;;;5073875;28;20032;-51
2022/03/12 11:46:03;;;;;;;20.00;12.07;;;;;;;;;;5073780;28;20029;-55
2022/03/12 11:48:33;;;;;;;16.10;10.63;;;;;;;;;;5073572;28;20044;-51
2022/03/12 11:51:03;;;;;;;8.25;4.85;;;;;;;;;;5074031;28;20032;-51
2022/03/12 11:53:36;;;;;;;7.65;4.18;;;;;;;;;;5073767;28;20082;-48
2022/03/12 11:56:02;;;;;;;10.02;5.18;;;;;;;;;;5055755;28;20376;-50
2022/03/12 11:58:28;;;;;;;6.22;4.32;;;;;;;;;;5073817;28;20104;-47
2022/03/12 12:00:54;;;;;;;19.52;8.20;;;;;;;;;;5072226;28;20173;-52
2022/03/12 12:03:20;;;;;;;9.50;5.30;;;;;;;;;;5072378;28;20024;-53
2022/03/12 12:05:49;;;;;;;9.02;5.68;;;;;;;;;;5072109;28;20048;-51
2022/03/12 12:08:15;;;;;;;15.40;9.57;;;;;;;;;;5072042;28;20040;-51
2022/03/12 12:10:42;;;;;;;19.77;10.73;;;;;;;;;;5072023;28;20017;-55
2022/03/12 12:13:13;;;;;;;12.45;6.55;;;;;;;;;;5072137;28;20051;-54
2022/03/12 12:15:41;;;;;;;23.08;13.20;;;;;;;;;;5071863;28;20021;-51
2022/03/12 12:18:12;;;;;;;8.00;5.15;;;;;;;;;;5072146;28;20040;-52
2022/03/12 12:20:38;;;;;;;10.63;5.82;;;;;;;;;;5073339;28;20025;-56
2022/03/12 12:23:05;;;;;;;23.50;12.05;;;;;;;;;;5073430;28;20048;-54
2022/03/12 12:25:32;;;;;;;17.75;10.82;;;;;;;;;;5073653;28;20052;-54
2022/03/12 12:27:59;;;;;;;12.30;7.45;;;;;;;;;;5072985;28;20029;-52
2022/03/12 12:30:38;;;;;;;14.35;5.60;;;;;;;;;;5073015;28;20021;-53
2022/03/12 12:33:16;;;;;;;6.07;4.57;;;;;;;;;;5073423;28;20039;-50
2022/03/12 12:35:43;;;;;;;13.32;8.65;;;;;;;;;;5073125;28;20021;-51
2022/03/12 12:38:10;;;;;;;11.48;5.95;;;;;;;;;;5073059;28;20111;-53
2022/03/12 12:40:42;;;;;;;15.07;8.38;;;;;;;;;;5073078;28;20023;-55
2022/03/12 12:43:09;;;;;;;7.75;4.90;;;;;;;;;;5073071;28;20025;-54
2022/03/12 12:45:43;;;;;;;17.35;10.52;;;;;;;;;;5073032;28;20025;-54
2022/03/12 12:48:09;;;;;;;14.32;7.93;;;;;;;;;;5072932;28;20040;-56
2022/03/12 12:50:36;;;;;;;8.75;5.28;;;;;;;;;;5073063;28;20027;-56
2022/03/12 12:53:09;;;;;;;18.67;11.25;;;;;;;;;;5073048;28;20029;-49
2022/03/12 12:55:36;;;;;;;14.48;8.15;;;;;;;;;;5072873;28;20100;-53
2022/03/12 12:58:03;;;;;;;19.42;11.55;;;;;;;;;;5072783;28;20090;-54
2022/03/12 13:00:34;;;;;;;10.23;6.10;;;;;;;;;;5072381;28;20028;-54
2022/03/12 13:03:01;;;;;;;10.50;6.00;;;;;;;;;;5072983;28;20064;-53
2022/03/12 13:05:43;;;;;;;14.15;6.25;;;;;;;;;;5072769;28;20104;-55
2022/03/12 13:08:09;;;;;;;23.73;13.57;;;;;;;;;;5072751;28;20436;-51
2022/03/12 13:10:36;;;;;;;13.52;7.82;;;;;;;;;;5072960;28;20385;-53
2022/03/12 13:13:21;;;;;;;23.70;13.38;;;;;;;;;;5072788;28;20054;-54
2022/03/12 13:15:48;;;;;;;11.45;6.93;;;;;;;;;;5072820;28;20112;-56
2022/03/12 13:18:14;;;;;;;11.85;6.10;;;;;;;;;;5073047;28;20017;-47
2022/03/12 13:20:44;;;;;;;30.15;12.82;;;;;;;;;;5072769;28;20020;-55
2022/03/12 13:23:11;;;;;;;22.23;9.35;;;;;;;;;;5072750;28;20468;-56
2022/03/12 13:25:50;;;;;;;19.15;9.70;;;;;;;;;;5072719;28;20366;-54
2022/03/12 13:28:36;;;;;;;11.55;6.28;;;;;;;;;;5072540;28;20032;-55
2022/03/12 13:31:20;;;;;;;8.88;5.07;;;;;;;;;;5072550;28;20438;-51
2022/03/12 13:33:47;;;;;;;17.60;8.70;;;;;;;;;;5072743;28;20111;-55
2022/03/12 13:36:20;;;;;;;27.23;13.75;;;;;;;;;;5072463;28;20025;-58
2022/03/12 13:38:47;;;;;;;44.63;17.27;;;;;;;;;;5072581;28;20024;-50
2022/03/12 13:41:14;;;;;;;108.30;61.53;;;;;;;;;;5072354;28;20021;-49
2022/03/12 13:43:41;;;;;;;17.23;10.80;;;;;;;;;;5072491;28;20020;-45
2022/03/12 13:46:07;;;;;;;31.23;18.65;;;;;;;;;;5072408;28;20039;-48
2022/03/12 13:48:33;;;;;;;40.67;22.15;;;;;;;;;;5072586;28;20395;-45
2022/03/12 13:50:59;;;;;;;64.60;34.50;;;;;;;;;;5075911;28;20082;-55
2022/03/12 13:53:29;;;;;;;39.60;23.95;;;;;;;;;;5076209;28;20040;-54
2022/03/12 13:56:28;;;;;;;63.92;34.10;;;;;;;;;;5075982;28;20055;-45
2022/03/12 13:58:54;;;;;;;20.47;12.80;;;;;;;;;;5076116;28;20106;-55
2022/03/12 14:01:34;;;;;;;39.65;23.25;;;;;;;;;;5075715;28;20083;-53
2022/03/12 14:04:01;;;;;;;71.15;41.65;;;;;;;;;;5075923;28;20392;-47
2022/03/12 14:06:33;;;;;;;30.95;17.88;;;;;;;;;;5075423;28;20052;-49
2022/03/12 14:09:01;;;;;;;31.60;18.45;;;;;;;;;;5075632;28;20105;-55
2022/03/12 14:11:36;;;;;;;57.60;32.40;;;;;;;;;;5075790;28;20509;-53
2022/03/12 14:14:07;;;;;;;67.90;38.92;;;;;;;;;;5075621;28;20107;-52
2022/03/12 14:16:37;;;;;;;64.03;35.40;;;;;;;;;;5075567;28;20044;-52
2022/03/12 14:19:05;;;;;;;33.50;20.75;;;;;;;;;;5075886;28;20017;-50
2022/03/12 14:21:36;;;;;;;38.67;22.73;;;;;;;;;;5075547;28;20031;-53
2022/03/12 14:24:18;;;;;;;29.48;16.67;;;;;;;;;;5075365;28;20027;-47
2022/03/12 14:26:48;;;;;;;36.83;21.45;;;;;;;;;;5075439;28;20025;-52